createdAt,value
2022-08-29T00:04:55.368Z,0.63
2022-08-29T00:09:59.049Z,0.43
2022-08-29T00:15:06.346Z,0.40
2022-08-29T00:20:13.183Z,0.40
2022-08-29T00:25:17.473Z,0.40
2022-08-29T00:30:24.170Z,0.40
2022-08-29T00:35:30.476Z,0.40
2022-08-29T00:40:36.981Z,0.40
2022-08-29T00:45:50.039Z,0.33
2022-08-29T00:50:56.431Z,0.40
2022-08-29T00:56:01.723Z,0.40
2022-08-29T01:01:07.587Z,0.40
2022-08-29T01:06:13.539Z,0.37
2022-08-29T01:11:36.243Z,0.33
2022-08-29T01:16:42.216Z,0.50
2022-08-29T01:21:51.162Z,0.40
2022-08-29T01:26:56.799Z,0.50
2022-08-29T01:32:00.539Z,0.33
2022-08-29T01:37:06.672Z,0.60
2022-08-29T01:42:15.180Z,0.33
2022-08-29T01:47:19.432Z,0.37
2022-08-29T01:52:23.387Z,0.33
2022-08-29T01:57:28.509Z,0.30
2022-08-29T02:02:32.714Z,0.60
2022-08-29T02:07:36.438Z,0.47
2022-08-29T02:12:43.762Z,0.30
2022-08-29T02:17:48.487Z,0.40
2022-08-29T02:22:52.270Z,0.50
2022-08-29T02:27:59.123Z,0.43
2022-08-29T02:33:03.502Z,0.50
2022-08-29T02:38:09.101Z,0.40
2022-08-29T02:43:15.421Z,0.50
2022-08-29T02:48:19.538Z,0.40
2022-08-29T02:53:26.511Z,0.40
2022-08-29T02:58:31.738Z,0.50
2022-08-29T03:03:35.360Z,0.33
2022-08-29T03:08:39.315Z,0.50
2022-08-29T03:13:44.396Z,0.37
2022-08-29T03:18:48.459Z,0.47
2022-08-29T03:23:52.272Z,0.57
2022-08-29T03:28:57.259Z,0.40
2022-08-29T03:34:00.893Z,0.40
2022-08-29T03:39:04.957Z,0.40
2022-08-29T03:44:10.131Z,0.70
2022-08-29T03:49:14.795Z,0.40
2022-08-29T03:54:18.695Z,0.57
2022-08-29T03:59:24.336Z,0.63
2022-08-29T04:04:46.433Z,0.50
2022-08-29T04:09:50.098Z,0.40
2022-08-29T04:14:55.122Z,0.50
2022-08-29T04:19:58.720Z,0.30
2022-08-29T04:25:02.388Z,0.40
2022-08-29T04:30:12.139Z,0.70
2022-08-29T04:35:17.027Z,0.60
2022-08-29T04:40:22.855Z,0.50
2022-08-29T04:45:28.128Z,0.60
2022-08-29T04:50:31.945Z,0.53
2022-08-29T04:55:35.578Z,0.40
2022-08-29T05:00:41.469Z,0.40
2022-08-29T05:05:45.056Z,0.40
2022-08-29T05:10:48.724Z,0.30
2022-08-29T05:15:53.734Z,0.40
2022-08-29T05:20:57.433Z,0.50
2022-08-29T05:26:02.936Z,0.60
2022-08-29T05:31:13.735Z,0.50
2022-08-29T05:36:17.534Z,0.50
2022-08-29T05:41:21.186Z,0.50
2022-08-29T05:46:26.407Z,0.60
2022-08-29T05:51:37.261Z,0.57
2022-08-29T05:56:43.091Z,0.63
2022-08-29T06:01:48.165Z,0.50
2022-08-29T06:06:51.812Z,0.70
2022-08-29T06:11:57.594Z,0.57
2022-08-29T06:17:02.833Z,0.80
2022-08-29T06:22:09.959Z,0.70
2022-08-29T06:27:14.519Z,0.83
2022-08-29T06:32:19.593Z,0.67
2022-08-29T06:37:23.217Z,0.80
2022-08-29T06:42:28.598Z,0.83
2022-08-29T06:47:34.442Z,0.60
2022-08-29T06:52:38.121Z,0.80
2022-08-29T06:57:45.400Z,0.70
2022-08-29T07:02:52.823Z,0.60
2022-08-29T07:07:56.779Z,0.80
2022-08-29T07:13:00.470Z,0.50
2022-08-29T07:18:05.850Z,0.60
2022-08-29T07:23:09.673Z,0.63
2022-08-29T07:28:15.928Z,0.57
2022-08-29T07:33:21.182Z,0.70
2022-08-29T07:38:25.005Z,0.53
2022-08-29T07:43:29.123Z,0.70
2022-08-29T07:48:34.366Z,0.57
2022-08-29T07:53:38.125Z,0.50
2022-08-29T07:58:42.792Z,0.73
2022-08-29T08:03:48.184Z,0.80
2022-08-29T08:08:52.166Z,0.90
2022-08-29T08:13:57.431Z,0.70
2022-08-29T08:19:02.492Z,0.80
2022-08-29T08:24:06.730Z,0.73
2022-08-29T08:29:12.875Z,0.70
2022-08-29T08:34:18.618Z,0.90
2022-08-29T08:39:22.309Z,1.00
2022-08-29T08:44:54.114Z,0.73
2022-08-29T08:50:04.445Z,0.97
2022-08-29T08:55:19.585Z,0.63
2022-08-29T09:00:23.198Z,0.50
2022-08-29T09:05:47.238Z,0.80
2022-08-29T09:11:00.757Z,0.70
2022-08-29T09:16:10.744Z,0.70
2022-08-29T09:21:39.912Z,0.60
2022-08-29T09:26:42.306Z,0.93
2022-08-29T09:31:46.056Z,0.60
2022-08-29T09:36:53.261Z,0.50
2022-08-29T09:41:59.977Z,0.57
2022-08-29T09:47:09.849Z,0.63
2022-08-29T09:52:16.885Z,0.70
2022-08-29T09:57:24.054Z,0.67
2022-08-29T10:02:31.060Z,0.60
2022-08-29T10:07:46.850Z,0.60
2022-08-29T10:12:58.429Z,0.70
2022-08-29T10:18:23.828Z,0.53
2022-08-29T10:23:38.379Z,0.33
2022-08-29T10:28:48.967Z,0.60
2022-08-29T10:34:08.665Z,0.70
2022-08-29T10:39:17.357Z,0.60
2022-08-29T10:44:33.811Z,0.73
2022-08-29T10:49:57.937Z,0.53
2022-08-29T10:55:10.769Z,0.40
2022-08-29T11:00:17.990Z,0.60
2022-08-29T11:05:25.730Z,0.60
2022-08-29T11:10:40.432Z,0.40
2022-08-29T11:15:49.108Z,0.70
2022-08-29T11:20:57.794Z,0.50
2022-08-29T11:26:08.617Z,0.50
2022-08-29T11:31:19.086Z,0.60
2022-08-29T11:36:48.405Z,0.43
2022-08-29T11:41:58.613Z,0.50
2022-08-29T11:47:03.085Z,0.70
2022-08-29T11:52:26.784Z,0.50
2022-08-29T11:58:01.781Z,0.70
2022-08-29T12:03:42.503Z,0.60
2022-08-29T12:08:54.534Z,0.57
2022-08-29T12:14:04.806Z,0.33
2022-08-29T12:19:09.528Z,0.33
2022-08-29T12:24:44.106Z,0.60
2022-08-29T12:29:58.852Z,0.50
2022-08-29T12:35:26.185Z,0.50
2022-08-29T12:40:57.989Z,0.50
2022-08-29T12:46:04.653Z,0.57
2022-08-29T12:51:08.695Z,0.87
2022-08-29T12:56:20.881Z,0.60
2022-08-29T13:01:29.852Z,0.40
2022-08-29T13:06:34.436Z,0.50
2022-08-29T13:11:39.465Z,0.50
2022-08-29T13:16:46.046Z,0.50
2022-08-29T13:21:50.099Z,0.60
2022-08-29T13:27:04.874Z,0.40
2022-08-29T13:32:18.301Z,0.47
2022-08-29T13:37:30.991Z,0.50
2022-08-29T13:42:36.033Z,0.50
2022-08-29T13:48:00.156Z,0.60
2022-08-29T13:53:03.776Z,0.53
2022-08-29T13:58:11.049Z,0.50
2022-08-29T14:03:18.126Z,0.50
2022-08-29T14:08:21.851Z,0.70
2022-08-29T14:13:28.012Z,0.50
2022-08-29T14:18:31.719Z,0.50
2022-08-29T14:23:36.836Z,0.60
2022-08-29T14:28:47.485Z,0.50
2022-08-29T14:33:52.198Z,0.40
2022-08-29T14:38:55.834Z,0.50
2022-08-29T14:44:00.933Z,0.50
2022-08-29T14:49:04.914Z,0.60
2022-08-29T14:54:08.564Z,0.57
2022-08-29T14:59:14.290Z,0.53
2022-08-29T15:04:17.928Z,0.50
2022-08-29T15:09:25.821Z,0.50
2022-08-29T15:14:31.101Z,0.60
2022-08-29T15:24:59.039Z,0.70
2022-08-29T15:30:04.496Z,0.77
2022-08-29T15:35:14.287Z,0.80
2022-08-29T15:40:19.425Z,0.50
2022-08-29T15:45:24.512Z,0.70
2022-08-29T15:50:29.022Z,0.60
2022-08-29T15:55:32.609Z,0.73
2022-08-29T16:00:37.655Z,0.60
2022-08-29T16:05:41.472Z,0.63
2022-08-29T16:10:45.706Z,0.50
2022-08-29T16:15:50.712Z,0.70
2022-08-29T16:20:56.716Z,0.57
2022-08-29T16:26:00.532Z,0.53
2022-08-29T16:31:06.124Z,0.70
2022-08-29T16:36:09.909Z,0.70
2022-08-29T16:41:15.701Z,0.60
2022-08-29T16:46:23.376Z,0.60
2022-08-29T16:51:28.028Z,0.60
2022-08-29T16:56:32.805Z,0.60
2022-08-29T17:01:43.801Z,0.50
2022-08-29T17:06:48.171Z,0.70
2022-08-29T17:11:52.243Z,0.77
2022-08-29T17:16:57.462Z,0.60
2022-08-29T17:22:01.220Z,0.73
2022-08-29T17:27:04.960Z,0.60
2022-08-29T17:32:10.832Z,0.50
2022-08-29T17:37:14.450Z,0.50
2022-08-29T17:42:18.022Z,0.60
2022-08-29T17:47:24.783Z,0.60
2022-08-29T17:52:28.446Z,0.50
2022-08-29T17:57:33.096Z,0.60
2022-08-29T18:02:38.215Z,0.67
2022-08-29T18:07:42.162Z,0.60
2022-08-29T18:12:46.356Z,0.50
2022-08-29T18:17:51.452Z,0.57
2022-08-29T18:22:55.613Z,0.60
2022-08-29T18:28:00.018Z,0.63
2022-08-29T18:33:06.926Z,0.70
2022-08-29T18:38:10.597Z,0.67
2022-08-29T18:43:15.078Z,0.60
2022-08-29T18:48:20.064Z,0.60
2022-08-29T18:53:26.222Z,0.73
2022-08-29T18:58:36.660Z,0.67
2022-08-29T19:03:43.713Z,0.50
2022-08-29T19:08:47.874Z,0.53
2022-08-29T19:13:52.589Z,0.60
2022-08-29T19:18:58.010Z,0.53
2022-08-29T19:24:02.005Z,0.60
2022-08-29T19:29:12.415Z,0.70
2022-08-29T19:34:17.399Z,0.50
2022-08-29T19:39:21.009Z,0.70
2022-08-29T19:44:24.674Z,0.63
2022-08-29T19:49:29.792Z,0.70
2022-08-29T19:54:34.635Z,0.70
2022-08-29T19:59:38.328Z,0.80
2022-08-29T20:04:44.091Z,0.83
2022-08-29T20:09:48.725Z,0.90
2022-08-29T20:14:52.609Z,0.70
2022-08-29T20:19:57.585Z,0.90
2022-08-29T20:25:01.300Z,0.90
2022-08-29T20:30:05.850Z,0.83
2022-08-29T20:35:10.977Z,1.00
2022-08-29T20:40:14.771Z,1.37
2022-08-29T20:45:18.695Z,1.20
2022-08-29T20:50:23.617Z,1.00
2022-08-29T20:55:27.278Z,1.00
2022-08-29T21:00:30.948Z,1.00
2022-08-29T21:05:42.242Z,1.00
2022-08-29T21:10:46.617Z,0.97
2022-08-29T21:15:50.408Z,1.20
2022-08-29T21:20:55.717Z,0.90
2022-08-29T21:26:02.243Z,0.90
2022-08-29T21:31:07.935Z,1.30
2022-08-29T21:36:14.073Z,0.90
2022-08-29T21:41:17.979Z,0.83
2022-08-29T21:46:23.873Z,1.03
2022-08-29T21:51:31.051Z,1.00
2022-08-29T21:56:36.400Z,1.10
2022-08-29T22:01:40.915Z,0.83
2022-08-29T22:06:52.799Z,1.17
2022-08-29T22:11:57.127Z,1.10
2022-08-29T22:17:00.760Z,0.80
2022-08-29T22:22:06.329Z,0.80
2022-08-29T22:27:10.190Z,1.10
2022-08-29T22:32:13.980Z,0.80
2022-08-29T22:37:19.174Z,0.80
2022-08-29T22:42:22.846Z,1.00
2022-08-29T22:47:26.723Z,1.10
2022-08-29T22:52:31.720Z,0.93
2022-08-29T22:57:35.366Z,1.10
2022-08-29T23:02:39.334Z,0.90
2022-08-29T23:07:44.336Z,0.87
2022-08-29T23:12:48.533Z,1.00
2022-08-29T23:17:52.147Z,0.90
2022-08-29T23:22:57.406Z,0.97
2022-08-29T23:28:01.167Z,1.10
2022-08-29T23:33:04.910Z,0.80
2022-08-29T23:38:10.131Z,1.00
2022-08-29T23:43:13.843Z,1.13
2022-08-29T23:48:17.682Z,1.17
2022-08-29T23:53:28.039Z,0.90
2022-08-29T23:58:31.657Z,0.90
